Time;durP1;ratioP1;P1;durP2;ratioP2;P2;SDS_P1;SDS_P2;PMS_P1;PMS_P2;Temp;Humidity;BMP_temperature;BMP_pressure;BME280_temperature;BME280_humidity;BME280_pressure;Samples;Min_cycle;Max_cycle;Signal;HPM_P1;HPM_P2
2021/06/03 00:02:01;;;;;;;14.32;11.30;;;18.40;60.60;;;;;;5096404;28;20019;-78
2021/06/03 00:04:26;;;;;;;17.17;12.38;;;18.40;60.80;;;;;;5097098;28;20491;-77
2021/06/03 00:06:52;;;;;;;15.50;11.50;;;18.30;61.30;;;;;;5096161;28;20111;-78
2021/06/03 00:09:18;;;;;;;18.05;12.10;;;18.30;61.80;;;;;;5095300;28;20024;-77
2021/06/03 00:11:45;;;;;;;17.55;12.88;;;18.30;61.90;;;;;;5094547;28;20016;-78
2021/06/03 00:14:11;;;;;;;18.27;11.93;;;18.20;62.20;;;;;;5086165;28;20032;-77
2021/06/03 00:16:37;;;;;;;16.95;12.07;;;18.20;61.30;;;;;;5096964;28;20016;-78
2021/06/03 00:19:06;;;;;;;17.05;12.32;;;18.10;62.00;;;;;;5097241;28;20461;-77
2021/06/03 00:21:33;;;;;;;16.98;13.00;;;18.10;62.20;;;;;;5097213;28;20024;-78
2021/06/03 00:24:00;;;;;;;21.98;14.02;;;18.00;63.50;;;;;;5095588;28;20077;-78
2021/06/03 00:26:26;;;;;;;17.55;13.18;;;17.90;63.00;;;;;;5096691;28;20016;-78
2021/06/03 00:28:52;;;;;;;16.38;12.15;;;17.90;61.80;;;;;;5088152;28;20035;-77
2021/06/03 00:31:18;;;;;;;16.92;12.13;;;17.90;61.20;;;;;;5095956;28;20024;-78
2021/06/03 00:33:44;;;;;;;17.90;12.32;;;17.90;61.00;;;;;;5096748;28;20038;-78
2021/06/03 00:36:10;;;;;;;14.82;11.27;;;17.80;60.80;;;;;;5094567;28;20042;-78
2021/06/03 00:38:37;;;;;;;15.38;12.15;;;17.80;60.60;;;;;;5096810;28;20103;-78
2021/06/03 00:41:04;;;;;;;16.80;11.13;;;17.80;60.20;;;;;;5085671;28;20031;-78
2021/06/03 00:43:31;;;;;;;13.88;10.98;;;17.70;59.80;;;;;;5082738;28;20027;-78
2021/06/03 00:45:57;;;;;;;14.88;11.18;;;17.70;59.90;;;;;;5096916;28;20054;-78
2021/06/03 00:48:23;;;;;;;15.93;11.35;;;17.60;60.00;;;;;;5095517;28;20081;-78
2021/06/03 00:50:51;;;;;;;16.77;11.63;;;17.60;59.80;;;;;;5086238;28;20028;-78
2021/06/03 00:53:19;;;;;;;14.52;11.13;;;17.60;59.50;;;;;;5100445;28;20016;-78
2021/06/03 00:55:52;;;;;;;14.88;11.25;;;17.50;59.40;;;;;;5099232;28;20076;-77
2021/06/03 00:58:18;;;;;;;15.23;11.80;;;17.50;59.20;;;;;;5094376;28;20561;-77
2021/06/03 01:00:44;;;;;;;15.90;10.75;;;17.50;59.70;;;;;;5096631;28;20012;-78
2021/06/03 01:03:11;;;;;;;14.50;10.60;;;17.40;59.40;;;;;;5100204;28;20024;-78
2021/06/03 01:05:53;;;;;;;16.50;12.70;;;17.40;59.30;;;;;;5100077;28;20074;-78
2021/06/03 01:08:24;;;;;;;15.30;11.43;;;17.40;59.40;;;;;;5097361;28;20036;-78
2021/06/03 01:11:14;;;;;;;17.30;11.50;;;17.30;59.20;;;;;;5100433;28;20024;-78
2021/06/03 01:13:56;;;;;;;17.58;11.77;;;17.30;59.00;;;;;;5086120;28;20119;-78
2021/06/03 01:16:23;;;;;;;13.03;10.90;;;17.20;59.00;;;;;;5100428;28;20052;-78
2021/06/03 01:18:52;;;;;;;16.08;11.45;;;17.20;58.80;;;;;;5098377;28;20040;-78
2021/06/03 01:21:34;;;;;;;17.98;11.82;;;17.20;58.90;;;;;;5100369;28;20386;-78
2021/06/03 01:24:25;;;;;;;15.98;11.50;;;17.10;58.80;;;;;;5099805;28;20044;-78
2021/06/03 01:26:53;;;;;;;16.05;11.75;;;17.10;59.30;;;;;;5099762;28;20085;-78
2021/06/03 01:29:20;;;;;;;17.23;12.20;;;17.10;59.10;;;;;;5090932;28;20017;-78
2021/06/03 01:31:49;;;;;;;15.70;12.02;;;17.00;59.00;;;;;;5095488;28;20024;-78
2021/06/03 01:34:15;;;;;;;13.93;10.82;;;17.00;59.00;;;;;;5099735;28;20047;-78
2021/06/03 01:36:42;;;;;;;16.05;10.90;;;17.00;59.00;;;;;;5098035;28;20067;-78
2021/06/03 01:39:10;;;;;;;13.55;10.45;;;16.90;58.80;;;;;;5097664;28;20039;-78
2021/06/03 01:41:35;;;;;;;15.90;10.73;;;16.90;58.90;;;;;;5099614;28;20024;-77
2021/06/03 01:44:03;;;;;;;15.80;11.73;;;16.90;58.80;;;;;;5098980;28;20102;-78
2021/06/03 01:46:30;;;;;;;14.68;11.20;;;16.80;58.90;;;;;;5098941;28;20371;-78
2021/06/03 01:48:57;;;;;;;18.95;11.82;;;16.80;59.00;;;;;;5098678;28;20074;-78
2021/06/03 01:51:25;;;;;;;16.50;12.00;;;16.80;59.00;;;;;;5099757;28;20020;-77
2021/06/03 01:53:52;;;;;;;17.17;12.13;;;16.70;58.90;;;;;;5098498;28;20560;-78
2021/06/03 01:56:18;;;;;;;14.93;12.52;;;16.70;59.00;;;;;;5099659;28;20035;-77
2021/06/03 01:58:46;;;;;;;14.00;11.50;;;16.70;59.10;;;;;;5093897;28;20023;-78
2021/06/03 02:01:12;;;;;;;18.45;11.68;;;16.70;59.00;;;;;;5099043;28;20458;-78
2021/06/03 02:03:38;;;;;;;19.52;10.82;;;16.60;58.90;;;;;;5098361;28;20039;-77
2021/06/03 02:06:05;;;;;;;15.50;11.50;;;16.60;58.90;;;;;;5099055;28;20028;-77
2021/06/03 02:08:31;;;;;;;14.50;11.13;;;16.60;58.90;;;;;;5097267;28;20391;-78
2021/06/03 02:10:59;;;;;;;13.68;10.43;;;16.50;59.00;;;;;;5086292;28;20457;-78
2021/06/03 02:13:37;;;;;;;14.40;11.35;;;16.50;59.00;;;;;;5097461;28;20020;-78
2021/06/03 02:16:05;;;;;;;15.55;11.80;;;16.50;59.00;;;;;;5098508;28;20036;-78
2021/06/03 02:18:38;;;;;;;14.65;11.05;;;16.50;58.90;;;;;;5097170;28;20390;-78
2021/06/03 02:21:06;;;;;;;16.08;11.88;;;16.50;59.00;;;;;;5097823;28;20030;-78
2021/06/03 02:23:32;;;;;;;17.67;11.63;;;16.40;59.00;;;;;;5090592;28;20020;-78
2021/06/03 02:26:02;;;;;;;18.65;13.65;;;16.40;59.90;;;;;;5098617;28;20089;-78
2021/06/03 02:28:29;;;;;;;21.27;13.70;;;16.30;62.60;;;;;;5097274;28;20420;-78
2021/06/03 02:30:59;;;;;;;15.55;12.02;;;16.30;60.90;;;;;;5098303;28;20482;-78
2021/06/03 02:33:28;;;;;;;15.07;11.32;;;16.30;60.40;;;;;;5098242;28;20476;-78
2021/06/03 02:35:54;;;;;;;16.77;11.57;;;16.20;59.80;;;;;;5098493;28;20028;-78
2021/06/03 02:38:28;;;;;;;16.48;12.05;;;16.30;59.80;;;;;;5097453;28;20513;-78
2021/06/03 02:40:57;;;;;;;15.48;11.50;;;16.20;59.70;;;;;;5098679;28;20020;-78
2021/06/03 02:43:23;;;;;;;14.57;11.07;;;16.20;59.60;;;;;;5098212;28;20026;-78
2021/06/03 02:45:49;;;;;;;15.05;11.43;;;16.20;59.40;;;;;;5098435;28;20032;-77
2021/06/03 02:48:14;;;;;;;15.40;11.18;;;16.20;59.40;;;;;;5097559;28;20027;-78
2021/06/03 02:50:40;;;;;;;16.52;11.68;;;16.20;59.50;;;;;;5098172;28;20062;-78
2021/06/03 02:53:06;;;;;;;15.73;11.27;;;16.20;59.50;;;;;;5086721;28;20025;-77
2021/06/03 02:55:32;;;;;;;14.10;10.40;;;16.20;59.60;;;;;;5082113;28;20028;-77
2021/06/03 02:57:58;;;;;;;14.88;11.77;;;16.20;60.20;;;;;;5095908;28;20111;-78
2021/06/03 03:00:27;;;;;;;15.82;12.55;;;16.20;60.80;;;;;;5081927;28;20028;-78
2021/06/03 03:02:53;;;;;;;16.77;12.90;;;16.20;61.10;;;;;;5086633;28;20020;-78
2021/06/03 03:05:19;;;;;;;17.75;12.50;;;16.20;61.10;;;;;;5097589;28;20020;-78
2021/06/03 03:07:46;;;;;;;16.80;11.52;;;16.10;61.50;;;;;;5097525;28;20031;-78
2021/06/03 03:10:19;;;;;;;15.55;11.80;;;16.10;61.50;;;;;;5097283;28;20491;-78
2021/06/03 03:12:45;;;;;;;15.45;12.02;;;16.10;60.90;;;;;;5096592;28;20031;-77
2021/06/03 03:15:13;;;;;;;18.73;13.48;;;16.10;60.80;;;;;;5097142;28;20032;-78
2021/06/03 03:17:40;;;;;;;19.17;12.82;;;16.00;61.70;;;;;;5097192;28;20110;-78
2021/06/03 03:20:08;;;;;;;15.80;12.10;;;16.00;61.50;;;;;;5083945;28;20032;-78
2021/06/03 03:22:33;;;;;;;18.65;13.00;;;16.00;61.20;;;;;;5093814;28;20020;-78
2021/06/03 03:24:59;;;;;;;15.73;12.55;;;15.90;60.70;;;;;;5093606;28;20539;-78
2021/06/03 03:27:25;;;;;;;21.15;13.60;;;15.90;60.60;;;;;;5097816;28;20154;-78
2021/06/03 03:29:51;;;;;;;16.45;12.48;;;15.90;61.00;;;;;;5096546;28;20062;-78
2021/06/03 03:32:17;;;;;;;17.95;12.95;;;15.90;61.00;;;;;;5095369;28;20059;-78
2021/06/03 03:34:43;;;;;;;18.08;12.98;;;15.90;60.70;;;;;;5097685;28;20509;-78
2021/06/03 03:37:09;;;;;;;16.08;11.73;;;15.90;60.80;;;;;;5096815;28;20052;-78
2021/06/03 03:39:34;;;;;;;17.40;11.82;;;15.80;60.60;;;;;;5097235;28;20015;-78
2021/06/03 03:42:00;;;;;;;18.50;13.35;;;15.80;60.40;;;;;;5097679;28;20115;-78
2021/06/03 03:44:26;;;;;;;16.55;12.07;;;15.80;60.50;;;;;;5097241;28;20032;-78
2021/06/03 03:46:52;;;;;;;16.95;12.95;;;15.80;60.70;;;;;;5097666;28;20533;-78
2021/06/03 03:49:18;;;;;;;16.27;11.85;;;15.80;60.60;;;;;;5083798;28;20044;-78
2021/06/03 03:51:44;;;;;;;14.98;11.30;;;15.70;60.50;;;;;;5096453;28;20108;-78
2021/06/03 03:54:09;;;;;;;15.10;11.88;;;15.70;60.40;;;;;;5096497;28;20535;-78
2021/06/03 03:56:35;;;;;;;15.18;11.80;;;15.70;60.30;;;;;;5097013;28;20039;-79
2021/06/03 03:59:01;;;;;;;18.48;13.60;;;15.70;60.90;;;;;;5086200;28;20442;-78
2021/06/03 04:01:30;;;;;;;19.88;12.20;;;15.70;60.60;;;;;;5085769;28;20028;-78
2021/06/03 04:03:56;;;;;;;17.83;13.05;;;15.70;60.70;;;;;;5093973;28;20555;-78
2021/06/03 04:06:22;;;;;;;17.95;14.70;;;15.70;60.90;;;;;;5097614;28;20040;-78
2021/06/03 04:08:48;;;;;;;18.65;14.13;;;15.70;61.20;;;;;;5095794;28;20061;-78
2021/06/03 04:11:14;;;;;;;18.25;12.82;;;15.70;61.50;;;;;;5084869;28;20107;-78
2021/06/03 04:13:40;;;;;;;16.67;13.20;;;15.70;61.40;;;;;;5095689;28;20410;-78
2021/06/03 04:16:06;;;;;;;18.83;13.15;;;15.70;61.40;;;;;;5095939;28;20040;-79
2021/06/03 04:18:32;;;;;;;19.95;13.40;;;15.70;61.60;;;;;;5097080;28;20487;-78
2021/06/03 04:20:58;;;;;;;18.92;13.80;;;15.70;61.90;;;;;;5095870;28;20016;-79
2021/06/03 04:23:24;;;;;;;18.80;14.35;;;15.70;61.80;;;;;;5096611;28;20052;-78
2021/06/03 04:25:50;;;;;;;20.42;13.25;;;15.70;62.30;;;;;;5097329;28;20024;-78
2021/06/03 04:28:16;;;;;;;20.70;14.68;;;15.80;62.20;;;;;;5100698;28;20024;-78
2021/06/03 04:30:42;;;;;;;20.52;13.82;;;15.70;63.80;;;;;;5100529;28;20012;-78
2021/06/03 04:33:09;;;;;;;22.35;15.10;;;15.80;65.40;;;;;;5092494;28;20254;-78
2021/06/03 04:35:36;;;;;;;21.50;14.77;;;15.70;65.00;;;;;;5095734;28;20030;-78
2021/06/03 04:38:03;;;;;;;17.73;13.73;;;15.70;63.90;;;;;;5100160;28;20062;-78
2021/06/03 04:40:29;;;;;;;18.65;14.63;;;15.80;63.60;;;;;;5100261;28;20050;-79
2021/06/03 04:42:57;;;;;;;21.27;13.60;;;15.80;64.80;;;;;;5100495;28;20420;-79
2021/06/03 04:45:27;;;;;;;19.33;14.43;;;15.80;63.90;;;;;;5100110;28;20501;-79
2021/06/03 04:47:55;;;;;;;19.10;13.95;;;15.80;63.80;;;;;;5092795;28;20036;-79
2021/06/03 04:50:23;;;;;;;22.08;13.35;;;15.80;63.40;;;;;;5094218;28;20035;-78
2021/06/03 04:52:49;;;;;;;17.65;13.88;;;15.80;63.10;;;;;;5100502;28;20475;-78
2021/06/03 04:55:18;;;;;;;17.48;13.50;;;15.80;63.60;;;;;;5099928;28;20027;-78
2021/06/03 04:57:45;;;;;;;22.02;14.60;;;15.80;63.50;;;;;;5099575;28;20058;-78
2021/06/03 05:00:17;;;;;;;20.02;13.98;;;15.80;63.70;;;;;;5098741;28;20020;-77
2021/06/03 05:02:43;;;;;;;20.00;14.85;;;15.80;63.60;;;;;;5087295;28;20031;-78
2021/06/03 05:05:10;;;;;;;20.13;14.43;;;15.80;63.90;;;;;;5100669;28;20089;-75
2021/06/03 05:07:36;;;;;;;20.35;14.15;;;15.90;64.20;;;;;;5098343;28;20024;-80
2021/06/03 05:10:02;;;;;;;22.60;16.08;;;15.90;64.10;;;;;;5094190;28;20024;-79
2021/06/03 05:12:28;;;;;;;21.65;15.18;;;15.90;64.20;;;;;;5099116;28;20024;-78
2021/06/03 05:14:54;;;;;;;18.92;14.13;;;15.90;64.10;;;;;;5095529;28;20028;-77
2021/06/03 05:17:21;;;;;;;20.52;15.52;;;15.90;64.20;;;;;;5094288;28;20145;-78
2021/06/03 05:19:47;;;;;;;24.85;17.33;;;15.90;66.60;;;;;;5100224;28;20487;-80
2021/06/03 05:22:13;;;;;;;25.05;16.73;;;15.90;68.10;;;;;;5092633;28;20032;-76
2021/06/03 05:24:39;;;;;;;23.08;16.38;;;15.90;67.40;;;;;;5099603;28;20078;-77
2021/06/03 05:27:05;;;;;;;26.50;16.10;;;15.90;67.50;;;;;;5099309;28;20039;-74
2021/06/03 05:29:31;;;;;;;23.58;17.92;;;15.90;67.20;;;;;;5099418;28;20031;-74
2021/06/03 05:31:57;;;;;;;24.48;18.38;;;15.90;68.40;;;;;;5099534;28;20058;-72
2021/06/03 05:34:23;;;;;;;25.58;17.98;;;15.90;68.20;;;;;;5098177;28;20066;-76
2021/06/03 05:36:50;;;;;;;27.67;18.05;;;16.00;68.00;;;;;;5098689;28;20052;-81
2021/06/03 05:39:16;;;;;;;26.15;18.02;;;16.10;68.30;;;;;;5098460;28;20047;-80
2021/06/03 05:41:43;;;;;;;27.20;17.23;;;16.10;67.90;;;;;;5085918;28;20432;-78
2021/06/03 05:44:10;;;;;;;29.33;20.70;;;16.20;68.40;;;;;;5091106;28;20024;-77
2021/06/03 05:46:37;;;;;;;26.50;18.48;;;16.20;69.10;;;;;;5098000;28;20016;-76
2021/06/03 05:49:05;;;;;;;28.73;20.67;;;16.30;69.30;;;;;;5099126;28;20028;-77
2021/06/03 05:51:32;;;;;;;26.88;19.40;;;16.30;68.40;;;;;;5097891;28;20031;-77
2021/06/03 05:53:58;;;;;;;25.95;19.38;;;16.30;68.40;;;;;;5098000;28;20111;-76
2021/06/03 05:56:25;;;;;;;27.55;19.80;;;16.30;68.60;;;;;;5096592;28;20032;-77
2021/06/03 05:58:52;;;;;;;28.63;19.25;;;16.40;68.00;;;;;;5090936;28;20025;-77
2021/06/03 06:01:18;;;;;;;26.95;18.27;;;16.40;69.30;;;;;;5096599;28;20032;-77
2021/06/03 06:03:48;;;;;;;28.27;20.05;;;16.40;68.40;;;;;;5098275;28;20538;-77
2021/06/03 06:08:43;;;;;;;29.92;19.35;;;16.50;68.20;;;;;;5098199;28;20111;-76
2021/06/03 06:11:10;;;;;;;29.25;21.05;;;16.50;67.80;;;;;;5097068;28;20032;-74
2021/06/03 06:13:36;;;;;;;25.15;19.10;;;16.60;67.90;;;;;;5088609;28;20032;-75
2021/06/03 06:16:03;;;;;;;29.90;20.95;;;16.60;67.70;;;;;;5094386;28;20085;-75
2021/06/03 06:18:29;;;;;;;27.35;18.83;;;16.60;68.60;;;;;;5095423;28;20032;-75
2021/06/03 06:20:55;;;;;;;27.20;17.45;;;16.60;68.00;;;;;;5095444;28;20085;-75
2021/06/03 06:23:21;;;;;;;24.40;18.10;;;16.60;67.50;;;;;;5098097;28;20024;-75
2021/06/03 06:25:47;;;;;;;24.08;18.73;;;16.60;67.30;;;;;;5096026;28;20027;-76
2021/06/03 06:28:14;;;;;;;25.98;17.60;;;16.60;67.30;;;;;;5087888;28;20402;-75
2021/06/03 06:30:41;;;;;;;26.58;18.23;;;16.60;67.30;;;;;;5096442;28;20047;-75
2021/06/03 06:33:09;;;;;;;27.65;19.05;;;16.60;67.40;;;;;;5094513;28;20077;-75
2021/06/03 06:35:35;;;;;;;26.33;19.73;;;16.70;67.40;;;;;;5096724;28;20040;-75
2021/06/03 06:38:03;;;;;;;26.73;19.70;;;16.70;67.80;;;;;;5097467;28;20050;-74
2021/06/03 06:40:30;;;;;;;28.58;18.90;;;16.80;67.90;;;;;;5095857;28;20035;-73
2021/06/03 06:42:56;;;;;;;27.63;20.35;;;16.90;68.60;;;;;;5086590;28;20021;-73
2021/06/03 06:45:24;;;;;;;28.73;19.25;;;17.00;69.00;;;;;;5094966;28;20045;-73
2021/06/03 06:47:50;;;;;;;24.90;18.55;;;17.10;68.80;;;;;;5098061;28;20058;-74
2021/06/03 06:50:16;;;;;;;24.33;18.15;;;17.20;68.80;;;;;;5092597;28;20081;-74
2021/06/03 06:52:42;;;;;;;26.35;18.83;;;17.30;69.00;;;;;;5097521;28;20035;-74
2021/06/03 06:55:09;;;;;;;25.85;19.13;;;17.40;68.50;;;;;;5093663;28;20020;-74
2021/06/03 06:57:36;;;;;;;26.83;20.67;;;17.40;68.50;;;;;;5087179;28;20040;-74
2021/06/03 07:00:07;;;;;;;28.08;19.17;;;17.40;68.40;;;;;;5088884;28;20008;-74
2021/06/03 07:02:33;;;;;;;28.15;19.05;;;17.40;69.30;;;;;;5095717;28;20024;-74
2021/06/03 07:04:58;;;;;;;28.40;19.42;;;17.50;69.10;;;;;;5097146;28;20564;-74
2021/06/03 07:07:24;;;;;;;36.15;20.98;;;17.50;68.90;;;;;;5097011;28;20032;-72
2021/06/03 07:09:50;;;;;;;33.80;19.98;;;17.50;69.00;;;;;;5096353;28;20104;-73
2021/06/03 07:12:16;;;;;;;24.88;18.63;;;17.60;68.80;;;;;;5097720;28;20032;-73
2021/06/03 07:14:42;;;;;;;31.63;18.85;;;17.70;69.20;;;;;;5096327;28;20031;-73
2021/06/03 07:17:07;;;;;;;24.55;18.35;;;17.80;69.30;;;;;;5086542;28;20032;-76
2021/06/03 07:19:33;;;;;;;26.55;17.02;;;17.90;69.00;;;;;;5096101;28;20027;-76
2021/06/03 07:21:59;;;;;;;24.52;18.63;;;18.00;69.60;;;;;;5096446;28;20087;-76
2021/06/03 07:24:25;;;;;;;24.75;16.83;;;18.20;69.80;;;;;;5090329;28;20048;-76
2021/06/03 07:26:51;;;;;;;23.27;17.33;;;18.40;69.60;;;;;;5096731;28;20024;-77
2021/06/03 07:29:17;;;;;;;26.25;16.98;;;18.70;69.60;;;;;;5096123;28;20044;-77
2021/06/03 07:31:42;;;;;;;23.90;17.52;;;19.00;70.20;;;;;;5087334;28;20023;-76
2021/06/03 07:34:08;;;;;;;26.73;16.90;;;19.40;70.80;;;;;;5096782;28;20020;-76
2021/06/03 07:36:34;;;;;;;23.63;16.35;;;20.00;72.00;;;;;;5095805;28;20500;-76
2021/06/03 07:39:01;;;;;;;20.90;15.77;;;20.60;72.90;;;;;;5097542;28;20028;-76
2021/06/03 07:41:27;;;;;;;19.42;15.05;;;21.20;71.70;;;;;;5100263;28;20031;-76
2021/06/03 07:43:53;;;;;;;21.23;14.00;;;21.50;68.50;;;;;;5095751;28;20020;-76
2021/06/03 07:46:19;;;;;;;20.27;14.80;;;21.60;66.70;;;;;;5096861;28;20040;-76
2021/06/03 07:48:45;;;;;;;19.58;14.63;;;21.70;65.60;;;;;;5096999;28;20084;-76
2021/06/03 07:51:12;;;;;;;22.05;14.65;;;21.70;64.50;;;;;;5094771;28;20128;-76
2021/06/03 07:53:38;;;;;;;22.65;14.73;;;21.80;64.60;;;;;;5096459;28;20073;-76
2021/06/03 07:56:05;;;;;;;21.35;15.00;;;21.80;63.30;;;;;;5092975;28;20041;-76
2021/06/03 07:58:31;;;;;;;23.10;15.52;;;21.70;64.30;;;;;;5090605;28;20033;-76
2021/06/03 08:00:57;;;;;;;24.23;14.50;;;21.70;64.40;;;;;;5094286;28;20028;-77
2021/06/03 08:03:23;;;;;;;23.30;15.52;;;21.60;63.00;;;;;;5099083;28;20024;-77
2021/06/03 08:05:49;;;;;;;21.50;15.02;;;21.40;63.40;;;;;;5096147;28;20028;-76
2021/06/03 08:08:15;;;;;;;24.70;16.13;;;21.20;62.60;;;;;;5096516;28;20052;-76
2021/06/03 08:10:42;;;;;;;21.08;15.55;;;21.00;63.00;;;;;;5096641;28;20086;-76
2021/06/03 08:13:09;;;;;;;20.98;14.70;;;20.90;63.60;;;;;;5097102;28;20436;-76
2021/06/03 08:15:38;;;;;;;20.58;15.77;;;20.90;63.90;;;;;;5096413;28;20055;-76
2021/06/03 08:18:04;;;;;;;19.88;15.15;;;20.80;64.00;;;;;;5096586;28;20023;-76
2021/06/03 08:20:34;;;;;;;21.45;14.98;;;20.70;63.20;;;;;;5097213;28;20069;-77
2021/06/03 08:23:00;;;;;;;20.88;15.27;;;20.60;63.60;;;;;;5095324;28;20021;-76
2021/06/03 08:25:26;;;;;;;18.67;13.82;;;20.50;63.20;;;;;;5096766;28;20024;-76
2021/06/03 08:27:52;;;;;;;20.85;14.50;;;20.50;63.30;;;;;;5096315;28;20027;-77
2021/06/03 08:30:18;;;;;;;21.65;15.75;;;20.40;63.80;;;;;;5096269;28;20439;-77
2021/06/03 08:32:47;;;;;;;19.80;14.35;;;20.50;64.60;;;;;;5096521;28;20532;-76
2021/06/03 08:35:16;;;;;;;21.15;15.82;;;20.70;64.30;;;;;;5095666;28;20024;-76
2021/06/03 08:37:47;;;;;;;23.58;16.55;;;20.90;64.30;;;;;;5096239;28;20154;-76
2021/06/03 08:40:17;;;;;;;22.55;14.60;;;21.00;62.60;;;;;;5096448;28;20028;-76
2021/06/03 08:42:43;;;;;;;23.88;16.25;;;20.90;63.10;;;;;;5096184;28;20027;-76
2021/06/03 08:45:12;;;;;;;21.27;15.35;;;20.90;63.40;;;;;;5096948;28;20032;-76
2021/06/03 08:47:39;;;;;;;22.08;16.02;;;20.80;63.60;;;;;;5083434;28;20035;-76
2021/06/03 08:50:06;;;;;;;25.48;17.77;;;20.80;63.40;;;;;;5096202;28;20077;-76
2021/06/03 08:52:32;;;;;;;21.48;16.10;;;20.60;63.10;;;;;;5096512;28;20103;-77
2021/06/03 08:54:59;;;;;;;23.30;17.17;;;20.50;62.90;;;;;;5094723;28;20051;-78
2021/06/03 08:57:25;;;;;;;20.98;15.80;;;20.40;63.20;;;;;;5096344;28;20368;-76
2021/06/03 08:59:51;;;;;;;25.40;16.95;;;20.30;63.40;;;;;;5092722;28;20077;-77
2021/06/03 09:02:18;;;;;;;21.20;16.13;;;20.10;63.60;;;;;;5095966;28;20501;-76
2021/06/03 09:04:45;;;;;;;25.98;17.55;;;20.00;63.70;;;;;;5096777;28;20402;-77
2021/06/03 09:07:35;;;;;;;23.73;16.77;;;19.90;63.60;;;;;;5094954;28;20020;-77
2021/06/03 09:10:25;;;;;;;21.00;15.70;;;19.80;63.60;;;;;;5096134;28;20024;-76
2021/06/03 09:13:15;;;;;;;24.42;17.42;;;19.70;63.50;;;;;;5096701;28;20061;-77
2021/06/03 09:15:54;;;;;;;27.52;17.38;;;19.60;63.70;;;;;;5090399;28;20584;-77
2021/06/03 09:18:55;;;;;;;24.77;17.67;;;19.60;63.90;;;;;;5093600;28;20020;-73
2021/06/03 09:21:24;;;;;;;23.05;17.35;;;19.50;64.00;;;;;;5097991;28;20032;-78
2021/06/03 09:24:05;;;;;;;25.42;18.30;;;19.50;64.00;;;;;;5099442;28;20035;-76
2021/06/03 09:26:37;;;;;;;35.03;24.13;;;19.40;63.90;;;;;;5097260;28;20020;-76
2021/06/03 09:29:07;;;;;;;25.90;18.27;;;19.30;64.20;;;;;;5095303;28;20035;-77
2021/06/03 09:31:36;;;;;;;25.27;19.08;;;19.30;64.60;;;;;;5097652;28;20062;-76
2021/06/03 09:34:03;;;;;;;27.40;17.70;;;19.20;65.10;;;;;;5096012;28;20394;-77
2021/06/03 09:36:30;;;;;;;35.00;26.35;;;19.10;65.00;;;;;;5098313;28;20525;-78
2021/06/03 09:39:08;;;;;;;44.78;30.20;;;19.10;65.10;;;;;;5087672;28;20039;-77
2021/06/03 09:41:35;;;;;;;28.98;20.63;;;19.00;65.50;;;;;;5097879;28;20020;-78
2021/06/03 09:44:04;;;;;;;27.50;20.15;;;19.00;65.60;;;;;;5090009;28;20032;-78
2021/06/03 09:46:38;;;;;;;28.10;20.15;;;19.00;66.00;;;;;;5088774;28;20024;-78
2021/06/03 09:49:06;;;;;;;35.78;23.33;;;19.00;66.00;;;;;;5095738;28;20115;-78
2021/06/03 09:51:37;;;;;;;39.15;27.02;;;18.90;66.00;;;;;;5099000;28;20012;-79
2021/06/03 09:54:06;;;;;;;69.95;47.97;;;18.90;66.20;;;;;;5097856;28;20491;-79
2021/06/03 09:56:40;;;;;;;47.65;34.65;;;18.90;66.20;;;;;;5095212;28;20470;-79
2021/06/03 09:59:15;;;;;;;36.42;25.75;;;18.90;66.20;;;;;;5092157;28;20053;-79
2021/06/03 10:01:46;;;;;;;30.10;21.30;;;18.90;66.50;;;;;;5099196;28;20046;-79
2021/06/03 10:04:15;;;;;;;32.28;20.35;;;18.90;66.80;;;;;;5086236;28;20026;-79
2021/06/03 10:07:13;;;;;;;28.30;19.33;;;18.90;66.90;;;;;;5099023;28;20431;-79
2021/06/03 10:09:44;;;;;;;27.50;19.65;;;18.90;67.10;;;;;;5099080;28;20462;-79
2021/06/03 10:12:13;;;;;;;30.35;18.92;;;18.90;67.30;;;;;;5098707;28;20052;-78
2021/06/03 10:14:39;;;;;;;30.30;19.33;;;19.00;67.30;;;;;;5098637;28;20088;-78
2021/06/03 10:17:26;;;;;;;30.45;21.35;;;18.90;67.60;;;;;;5098563;28;20024;-79
2021/06/03 10:19:55;;;;;;;27.45;19.05;;;18.90;67.70;;;;;;5096475;28;20040;-79
2021/06/03 10:22:24;;;;;;;25.60;19.00;;;19.00;67.70;;;;;;5084708;28;20027;-77
2021/06/03 10:24:52;;;;;;;26.63;18.95;;;19.00;67.50;;;;;;5096657;28;20027;-79
2021/06/03 10:27:19;;;;;;;27.05;18.48;;;19.00;67.40;;;;;;5097474;28;20047;-78
2021/06/03 10:29:49;;;;;;;29.10;20.00;;;18.90;67.50;;;;;;5094194;28;20169;-80
2021/06/03 10:32:21;;;;;;;27.08;20.42;;;19.00;67.70;;;;;;5098353;28;20512;-76
2021/06/03 10:34:47;;;;;;;29.10;19.98;;;19.10;67.60;;;;;;5096759;28;20077;-75
2021/06/03 10:37:15;;;;;;;25.02;19.02;;;19.10;67.50;;;;;;5095832;28;20036;-75
2021/06/03 10:39:44;;;;;;;29.38;19.75;;;19.10;67.60;;;;;;5096627;28;20017;-73
2021/06/03 10:42:12;;;;;;;28.83;20.45;;;19.00;68.10;;;;;;5096404;28;20515;-77
2021/06/03 10:44:41;;;;;;;33.10;22.35;;;19.00;67.80;;;;;;5098033;28;20020;-74
2021/06/03 10:47:12;;;;;;;29.60;20.98;;;19.00;68.40;;;;;;5097166;28;20525;-74
2021/06/03 10:49:38;;;;;;;28.02;20.33;;;18.90;68.40;;;;;;5097448;28;20024;-74
2021/06/03 10:52:09;;;;;;;30.75;20.77;;;18.80;68.20;;;;;;5097242;28;20020;-75
2021/06/03 10:54:50;;;;;;;33.30;21.02;;;18.80;67.80;;;;;;5092727;28;20063;-78
2021/06/03 10:57:19;;;;;;;32.42;21.95;;;18.80;68.30;;;;;;5097275;28;20020;-77
2021/06/03 10:59:46;;;;;;;31.83;21.02;;;18.80;68.10;;;;;;5090726;28;20395;-75
2021/06/03 11:02:12;;;;;;;33.42;22.20;;;18.70;67.90;;;;;;5097413;28;20517;-65
2021/06/03 11:04:40;;;;;;;33.40;23.38;;;18.70;68.40;;;;;;5097366;28;20023;-65
2021/06/03 11:07:07;;;;;;;35.80;23.60;;;18.70;68.40;;;;;;5095926;28;20390;-64
2021/06/03 11:09:42;;;;;;;30.45;22.80;;;18.60;68.30;;;;;;5097089;28;20054;-64
2021/06/03 11:12:16;;;;;;;28.38;20.17;;;18.60;68.40;;;;;;5086138;28;20453;-64
2021/06/03 11:15:19;;;;;;;23.30;17.52;;;18.60;68.60;;;;;;5097402;28;20023;-64
2021/06/03 11:17:55;;;;;;;21.27;15.45;;;18.50;68.60;;;;;;5074485;28;20033;-65
2021/06/03 11:20:56;;;;;;;19.15;14.07;;;18.60;68.60;;;;;;5090709;28;20039;-65
2021/06/03 11:23:34;;;;;;;21.15;13.23;;;18.60;68.40;;;;;;5054128;28;20025;-64
2021/06/03 11:26:06;;;;;;;21.80;14.73;;;18.60;68.40;;;;;;5086610;28;20064;-65
2021/06/03 11:28:32;;;;;;;19.80;14.60;;;18.60;68.70;;;;;;5091519;28;20029;-65
2021/06/03 11:31:22;;;;;;;22.25;15.50;;;18.70;69.20;;;;;;5090832;28;20262;-65
2021/06/03 11:34:20;;;;;;;24.10;16.42;;;18.70;69.20;;;;;;5097571;28;20028;-65
2021/06/03 11:36:58;;;;;;;28.13;20.13;;;18.80;69.60;;;;;;5076273;28;20497;-65
2021/06/03 11:39:32;;;;;;;31.58;21.88;;;18.90;70.10;;;;;;5094565;28;20020;-65
2021/06/03 11:42:37;;;;;;;37.63;24.08;;;19.10;70.60;;;;;;5097332;28;20076;-65
2021/06/03 11:45:24;;;;;;;35.17;24.05;;;19.40;71.40;;;;;;5087097;28;20054;-65
2021/06/03 11:47:55;;;;;;;31.85;21.25;;;19.80;71.10;;;;;;5097021;28;20024;-65
2021/06/03 11:50:20;;;;;;;30.25;22.25;;;20.10;71.70;;;;;;5097126;28;20039;-64
2021/06/03 11:52:53;;;;;;;31.85;24.42;;;20.30;71.60;;;;;;5096861;28;20024;-65
2021/06/03 11:55:43;;;;;;;35.38;23.63;;;20.70;72.50;;;;;;5097116;28;20456;-66
2021/06/03 11:58:21;;;;;;;29.80;23.08;;;21.00;73.20;;;;;;5093309;28;20048;-65
2021/06/03 12:00:49;;;;;;;32.22;22.05;;;21.20;71.30;;;;;;5089456;28;20386;-66
2021/06/03 12:03:21;;;;;;;31.65;21.95;;;21.20;70.40;;;;;;5097116;28;20020;-66
2021/06/03 12:05:47;;;;;;;;;;;21.20;70.00;;;;;;5092099;28;20031;-66
2021/06/03 12:08:30;;;;;;;31.75;21.27;;;21.10;69.30;;;;;;5096866;28;19994;-66
2021/06/03 12:10:56;;;;;;;27.80;21.13;;;21.00;68.70;;;;;;5096611;28;20039;-66
2021/06/03 12:13:22;;;;;;;27.00;20.45;;;20.90;68.70;;;;;;5097316;28;20110;-66
2021/06/03 12:15:48;;;;;;;27.73;19.50;;;20.80;68.50;;;;;;5096839;28;20483;-65
2021/06/03 12:18:14;;;;;;;29.42;19.85;;;20.70;68.50;;;;;;5096997;28;20028;-65
2021/06/03 12:20:40;;;;;;;29.48;21.40;;;20.50;69.10;;;;;;5096706;28;20020;-66
2021/06/03 12:23:08;;;;;;;27.95;19.67;;;20.40;69.00;;;;;;5088314;28;20033;-65
2021/06/03 12:25:35;;;;;;;27.95;20.25;;;20.30;68.40;;;;;;5094337;28;20437;-65
2021/06/03 12:28:03;;;;;;;28.35;19.23;;;20.20;68.60;;;;;;5097116;28;20036;-66
2021/06/03 12:30:33;;;;;;;26.35;19.08;;;20.10;68.70;;;;;;5096559;28;20028;-66
2021/06/03 12:33:29;;;;;;;28.45;20.88;;;20.00;68.60;;;;;;5096980;28;20036;-66
2021/06/03 12:36:01;;;;;;;29.70;20.58;;;20.00;68.50;;;;;;5086506;28;20024;-66
2021/06/03 12:38:36;;;;;;;27.27;18.70;;;20.00;68.50;;;;;;5096304;28;20040;-66
2021/06/03 12:41:03;;;;;;;30.48;20.40;;;20.00;68.70;;;;;;5097009;28;20075;-66